sensor_id;sensor_type;location;lat;lon;timestamp;P1;durP1;ratioP1;P2;durP2;ratioP2
36185;SDS011;22228;53.222;7.446;2023-09-18T00:01:12;41.20;;;37.40;;
36185;SDS011;22228;53.222;7.446;2023-09-18T00:03:33;41.50;;;37.83;;
36185;SDS011;22228;53.222;7.446;2023-09-18T00:05:53;43.03;;;39.13;;
36185;SDS011;22228;53.222;7.446;2023-09-18T00:08:14;38.40;;;34.87;;
36185;SDS011;22228;53.222;7.446;2023-09-18T00:10:34;43.30;;;39.23;;
36185;SDS011;22228;53.222;7.446;2023-09-18T00:12:56;40.23;;;36.50;;
36185;SDS011;22228;53.222;7.446;2023-09-18T03:01:12;55.13;;;49.40;;
36185;SDS011;22228;53.222;7.446;2023-09-18T03:03:33;50.07;;;45.20;;
36185;SDS011;22228;53.222;7.446;2023-09-18T03:05:59;53.57;;;48.20;;
36185;SDS011;22228;53.222;7.446;2023-09-18T03:08:21;51.80;;;46.70;;
36185;SDS011;22228;53.222;7.446;2023-09-18T03:10:41;51.90;;;46.67;;
36185;SDS011;22228;53.222;7.446;2023-09-18T03:13:03;51.43;;;46.43;;
36185;SDS011;22228;53.222;7.446;2023-09-18T03:15:24;52.80;;;47.40;;
36185;SDS011;22228;53.222;7.446;2023-09-18T03:17:46;50.97;;;45.73;;
36185;SDS011;22228;53.222;7.446;2023-09-18T03:20:07;49.67;;;44.27;;
36185;SDS011;22228;53.222;7.446;2023-09-18T03:22:27;50.23;;;44.87;;
36185;SDS011;22228;53.222;7.446;2023-09-18T03:24:48;50.27;;;44.97;;
36185;SDS011;22228;53.222;7.446;2023-09-18T03:27:09;46.33;;;41.77;;
36185;SDS011;22228;53.222;7.446;2023-09-18T03:29:29;49.67;;;44.67;;
36185;SDS011;22228;53.222;7.446;2023-09-18T03:31:50;47.63;;;42.73;;
36185;SDS011;22228;53.222;7.446;2023-09-18T03:34:12;46.97;;;42.20;;
36185;SDS011;22228;53.222;7.446;2023-09-18T03:36:33;46.97;;;42.40;;
36185;SDS011;22228;53.222;7.446;2023-09-18T03:38:54;47.33;;;42.47;;
36185;SDS011;22228;53.222;7.446;2023-09-18T03:41:15;45.30;;;40.93;;
36185;SDS011;22228;53.222;7.446;2023-09-18T03:43:36;45.50;;;41.00;;
36185;SDS011;22228;53.222;7.446;2023-09-18T03:46:02;47.03;;;42.13;;
36185;SDS011;22228;53.222;7.446;2023-09-18T03:48:25;46.60;;;41.80;;
36185;SDS011;22228;53.222;7.446;2023-09-18T03:50:48;43.33;;;39.03;;
36185;SDS011;22228;53.222;7.446;2023-09-18T03:53:08;44.97;;;40.20;;
36185;SDS011;22228;53.222;7.446;2023-09-18T03:55:29;43.87;;;39.37;;
36185;SDS011;22228;53.222;7.446;2023-09-18T03:57:51;43.70;;;39.47;;
36185;SDS011;22228;53.222;7.446;2023-09-18T04:00:12;44.40;;;39.77;;
36185;SDS011;22228;53.222;7.446;2023-09-18T04:02:33;41.37;;;37.27;;
36185;SDS011;22228;53.222;7.446;2023-09-18T04:04:54;42.60;;;38.00;;
36185;SDS011;22228;53.222;7.446;2023-09-18T04:07:16;40.93;;;36.70;;
36185;SDS011;22228;53.222;7.446;2023-09-18T04:09:38;40.00;;;35.80;;
36185;SDS011;22228;53.222;7.446;2023-09-18T04:11:58;40.43;;;36.23;;
36185;SDS011;22228;53.222;7.446;2023-09-18T04:14:19;41.00;;;36.57;;
36185;SDS011;22228;53.222;7.446;2023-09-18T04:16:40;40.37;;;36.20;;
36185;SDS011;22228;53.222;7.446;2023-09-18T04:19:01;38.57;;;34.77;;
36185;SDS011;22228;53.222;7.446;2023-09-18T04:21:22;39.63;;;35.53;;
36185;SDS011;22228;53.222;7.446;2023-09-18T04:23:45;39.43;;;35.47;;
36185;SDS011;22228;53.222;7.446;2023-09-18T04:26:06;38.50;;;34.50;;
36185;SDS011;22228;53.222;7.446;2023-09-18T04:28:26;40.43;;;36.23;;
36185;SDS011;22228;53.222;7.446;2023-09-18T04:30:47;37.83;;;33.97;;
36185;SDS011;22228;53.222;7.446;2023-09-18T04:33:08;36.87;;;33.10;;
36185;SDS011;22228;53.222;7.446;2023-09-18T04:35:28;36.73;;;33.00;;
36185;SDS011;22228;53.222;7.446;2023-09-18T04:37:50;37.37;;;33.77;;
36185;SDS011;22228;53.222;7.446;2023-09-18T04:40:16;36.73;;;33.13;;
36185;SDS011;22228;53.222;7.446;2023-09-18T04:42:37;36.90;;;33.00;;
36185;SDS011;22228;53.222;7.446;2023-09-18T04:44:59;35.87;;;32.10;;
36185;SDS011;22228;53.222;7.446;2023-09-18T04:47:20;36.03;;;32.20;;
36185;SDS011;22228;53.222;7.446;2023-09-18T04:49:41;34.77;;;31.07;;
36185;SDS011;22228;53.222;7.446;2023-09-18T04:52:03;31.93;;;28.63;;
36185;SDS011;22228;53.222;7.446;2023-09-18T04:54:24;31.73;;;28.50;;
36185;SDS011;22228;53.222;7.446;2023-09-18T04:56:45;30.10;;;27.17;;
36185;SDS011;22228;53.222;7.446;2023-09-18T04:59:06;31.10;;;27.87;;
36185;SDS011;22228;53.222;7.446;2023-09-18T05:01:27;30.90;;;27.63;;
36185;SDS011;22228;53.222;7.446;2023-09-18T05:03:48;29.77;;;26.87;;
36185;SDS011;22228;53.222;7.446;2023-09-18T05:06:09;28.87;;;25.93;;
36185;SDS011;22228;53.222;7.446;2023-09-18T05:08:29;28.33;;;25.53;;
36185;SDS011;22228;53.222;7.446;2023-09-18T05:10:49;27.10;;;24.43;;
36185;SDS011;22228;53.222;7.446;2023-09-18T05:13:12;26.57;;;23.77;;
36185;SDS011;22228;53.222;7.446;2023-09-18T05:15:32;24.07;;;21.67;;
36185;SDS011;22228;53.222;7.446;2023-09-18T05:17:52;25.40;;;22.70;;
36185;SDS011;22228;53.222;7.446;2023-09-18T05:20:16;26.00;;;23.40;;
36185;SDS011;22228;53.222;7.446;2023-09-18T05:22:36;23.90;;;21.50;;
36185;SDS011;22228;53.222;7.446;2023-09-18T05:24:57;23.37;;;20.97;;
36185;SDS011;22228;53.222;7.446;2023-09-18T05:27:17;22.87;;;20.60;;
36185;SDS011;22228;53.222;7.446;2023-09-18T05:29:39;22.77;;;19.73;;
36185;SDS011;22228;53.222;7.446;2023-09-18T05:31:59;23.53;;;20.43;;
36185;SDS011;22228;53.222;7.446;2023-09-18T05:34:20;26.80;;;20.93;;
36185;SDS011;22228;53.222;7.446;2023-09-18T05:36:40;21.87;;;19.83;;
36185;SDS011;22228;53.222;7.446;2023-09-18T05:39:01;20.90;;;18.90;;
36185;SDS011;22228;53.222;7.446;2023-09-18T05:41:22;21.10;;;19.07;;
36185;SDS011;22228;53.222;7.446;2023-09-18T05:43:45;21.07;;;18.90;;
36185;SDS011;22228;53.222;7.446;2023-09-18T05:46:07;19.73;;;17.83;;
36185;SDS011;22228;53.222;7.446;2023-09-18T05:48:27;20.17;;;18.07;;
36185;SDS011;22228;53.222;7.446;2023-09-18T05:50:48;20.67;;;18.77;;
36185;SDS011;22228;53.222;7.446;2023-09-18T05:53:08;18.90;;;16.97;;
36185;SDS011;22228;53.222;7.446;2023-09-18T05:55:29;19.43;;;17.53;;
36185;SDS011;22228;53.222;7.446;2023-09-18T05:57:50;19.70;;;17.77;;
36185;SDS011;22228;53.222;7.446;2023-09-18T06:00:10;17.73;;;16.10;;
36185;SDS011;22228;53.222;7.446;2023-09-18T06:02:34;16.97;;;15.37;;
36185;SDS011;22228;53.222;7.446;2023-09-18T06:04:56;17.87;;;16.17;;
36185;SDS011;22228;53.222;7.446;2023-09-18T06:07:19;17.50;;;15.90;;
36185;SDS011;22228;53.222;7.446;2023-09-18T06:09:39;17.40;;;15.63;;
36185;SDS011;22228;53.222;7.446;2023-09-18T06:12:00;16.87;;;15.20;;
36185;SDS011;22228;53.222;7.446;2023-09-18T06:14:20;16.20;;;14.50;;
36185;SDS011;22228;53.222;7.446;2023-09-18T06:16:41;15.23;;;13.73;;
36185;SDS011;22228;53.222;7.446;2023-09-18T06:19:03;15.50;;;14.10;;
36185;SDS011;22228;53.222;7.446;2023-09-18T06:21:24;16.07;;;14.33;;
36185;SDS011;22228;53.222;7.446;2023-09-18T06:23:44;17.07;;;15.20;;
36185;SDS011;22228;53.222;7.446;2023-09-18T06:26:05;20.37;;;14.57;;
36185;SDS011;22228;53.222;7.446;2023-09-18T06:28:25;16.10;;;14.50;;
36185;SDS011;22228;53.222;7.446;2023-09-18T06:30:45;15.53;;;12.70;;
36185;SDS011;22228;53.222;7.446;2023-09-18T06:33:06;14.33;;;12.93;;
36185;SDS011;22228;53.222;7.446;2023-09-18T06:35:28;12.43;;;11.03;;
36185;SDS011;22228;53.222;7.446;2023-09-18T06:37:48;14.77;;;12.60;;
36185;SDS011;22228;53.222;7.446;2023-09-18T06:40:09;12.77;;;11.57;;
36185;SDS011;22228;53.222;7.446;2023-09-18T06:42:29;12.00;;;10.90;;
36185;SDS011;22228;53.222;7.446;2023-09-18T06:44:50;12.47;;;11.23;;
36185;SDS011;22228;53.222;7.446;2023-09-18T06:47:11;12.63;;;11.33;;
36185;SDS011;22228;53.222;7.446;2023-09-18T06:49:33;12.93;;;11.50;;
36185;SDS011;22228;53.222;7.446;2023-09-18T06:51:55;12.00;;;10.80;;
36185;SDS011;22228;53.222;7.446;2023-09-18T06:54:15;11.87;;;10.67;;
36185;SDS011;22228;53.222;7.446;2023-09-18T06:56:36;11.17;;;10.10;;
36185;SDS011;22228;53.222;7.446;2023-09-18T06:58:56;12.17;;;10.97;;
36185;SDS011;22228;53.222;7.446;2023-09-18T07:01:17;10.70;;;9.60;;
36185;SDS011;22228;53.222;7.446;2023-09-18T07:03:37;9.90;;;8.90;;
36185;SDS011;22228;53.222;7.446;2023-09-18T07:05:59;12.83;;;10.10;;
36185;SDS011;22228;53.222;7.446;2023-09-18T07:08:21;11.07;;;8.90;;
36185;SDS011;22228;53.222;7.446;2023-09-18T07:10:41;13.63;;;10.80;;
36185;SDS011;22228;53.222;7.446;2023-09-18T07:13:02;14.73;;;9.23;;
36185;SDS011;22228;53.222;7.446;2023-09-18T07:15:23;11.07;;;9.53;;
36185;SDS011;22228;53.222;7.446;2023-09-18T07:17:43;13.83;;;9.93;;
36185;SDS011;22228;53.222;7.446;2023-09-18T07:20:04;17.40;;;10.60;;
36185;SDS011;22228;53.222;7.446;2023-09-18T07:22:32;12.33;;;10.33;;
36185;SDS011;22228;53.222;7.446;2023-09-18T07:24:54;12.60;;;10.37;;
36185;SDS011;22228;53.222;7.446;2023-09-18T07:27:15;10.87;;;9.80;;
36185;SDS011;22228;53.222;7.446;2023-09-18T07:29:35;14.80;;;10.30;;
36185;SDS011;22228;53.222;7.446;2023-09-18T07:31:56;13.47;;;9.73;;
36185;SDS011;22228;53.222;7.446;2023-09-18T07:34:16;11.23;;;10.13;;
36185;SDS011;22228;53.222;7.446;2023-09-18T07:36:37;12.63;;;9.83;;
36185;SDS011;22228;53.222;7.446;2023-09-18T07:38:57;10.90;;;9.80;;
36185;SDS011;22228;53.222;7.446;2023-09-18T07:41:19;14.60;;;10.40;;
36185;SDS011;22228;53.222;7.446;2023-09-18T07:43:41;11.53;;;10.37;;
36185;SDS011;22228;53.222;7.446;2023-09-18T07:46:01;11.90;;;10.67;;
36185;SDS011;22228;53.222;7.446;2023-09-18T07:48:22;12.80;;;10.23;;
36185;SDS011;22228;53.222;7.446;2023-09-18T07:50:43;12.17;;;10.87;;
36185;SDS011;22228;53.222;7.446;2023-09-18T07:53:03;13.10;;;10.07;;
36185;SDS011;22228;53.222;7.446;2023-09-18T07:55:24;12.43;;;10.40;;
36185;SDS011;22228;53.222;7.446;2023-09-18T07:57:46;12.53;;;11.03;;
36185;SDS011;22228;53.222;7.446;2023-09-18T08:00:08;14.57;;;11.67;;
36185;SDS011;22228;53.222;7.446;2023-09-18T08:02:31;14.70;;;10.73;;
36185;SDS011;22228;53.222;7.446;2023-09-18T08:04:53;11.83;;;10.63;;
36185;SDS011;22228;53.222;7.446;2023-09-18T08:07:14;16.23;;;11.43;;
36185;SDS011;22228;53.222;7.446;2023-09-18T08:09:34;13.03;;;11.00;;
36185;SDS011;22228;53.222;7.446;2023-09-18T08:11:55;12.03;;;10.83;;
36185;SDS011;22228;53.222;7.446;2023-09-18T08:14:17;13.43;;;10.93;;
36185;SDS011;22228;53.222;7.446;2023-09-18T08:16:38;12.60;;;11.27;;
36185;SDS011;22228;53.222;7.446;2023-09-18T08:19:00;13.00;;;11.63;;
36185;SDS011;22228;53.222;7.446;2023-09-18T08:21:20;15.87;;;12.43;;
36185;SDS011;22228;53.222;7.446;2023-09-18T08:23:42;13.40;;;11.83;;
36185;SDS011;22228;53.222;7.446;2023-09-18T08:26:03;18.17;;;12.90;;
36185;SDS011;22228;53.222;7.446;2023-09-18T08:28:24;13.50;;;12.03;;
36185;SDS011;22228;53.222;7.446;2023-09-18T08:30:46;14.10;;;12.63;;
36185;SDS011;22228;53.222;7.446;2023-09-18T08:33:07;14.60;;;13.20;;
36185;SDS011;22228;53.222;7.446;2023-09-18T08:35:27;14.13;;;12.63;;
36185;SDS011;22228;53.222;7.446;2023-09-18T08:37:49;17.70;;;13.80;;
36185;SDS011;22228;53.222;7.446;2023-09-18T08:40:09;15.67;;;13.37;;
36185;SDS011;22228;53.222;7.446;2023-09-18T08:42:32;14.60;;;13.20;;
36185;SDS011;22228;53.222;7.446;2023-09-18T08:44:54;14.30;;;12.83;;
36185;SDS011;22228;53.222;7.446;2023-09-18T08:47:19;14.43;;;13.00;;
36185;SDS011;22228;53.222;7.446;2023-09-18T08:49:41;13.60;;;12.50;;
36185;SDS011;22228;53.222;7.446;2023-09-18T08:52:02;14.37;;;12.90;;
36185;SDS011;22228;53.222;7.446;2023-09-18T08:54:23;14.30;;;11.63;;
36185;SDS011;22228;53.222;7.446;2023-09-18T08:56:43;12.90;;;11.37;;
36185;SDS011;22228;53.222;7.446;2023-09-18T08:59:04;13.13;;;11.87;;
36185;SDS011;22228;53.222;7.446;2023-09-18T09:01:24;15.20;;;12.67;;
36185;SDS011;22228;53.222;7.446;2023-09-18T09:03:46;12.17;;;11.07;;
36185;SDS011;22228;53.222;7.446;2023-09-18T09:06:08;15.70;;;11.80;;
36185;SDS011;22228;53.222;7.446;2023-09-18T09:08:29;15.47;;;12.20;;
36185;SDS011;22228;53.222;7.446;2023-09-18T09:10:50;14.23;;;12.37;;
36185;SDS011;22228;53.222;7.446;2023-09-18T09:13:11;13.63;;;12.23;;
36185;SDS011;22228;53.222;7.446;2023-09-18T09:15:34;12.53;;;11.23;;
36185;SDS011;22228;53.222;7.446;2023-09-18T09:18:06;12.10;;;10.90;;
36185;SDS011;22228;53.222;7.446;2023-09-18T09:20:28;13.57;;;12.17;;
36185;SDS011;22228;53.222;7.446;2023-09-18T09:22:49;12.87;;;11.30;;
36185;SDS011;22228;53.222;7.446;2023-09-18T09:25:23;14.27;;;12.40;;
36185;SDS011;22228;53.222;7.446;2023-09-18T09:27:45;12.93;;;11.53;;
36185;SDS011;22228;53.222;7.446;2023-09-18T09:30:05;12.73;;;11.37;;
36185;SDS011;22228;53.222;7.446;2023-09-18T09:32:29;13.57;;;12.17;;
36185;SDS011;22228;53.222;7.446;2023-09-18T09:34:52;14.30;;;12.50;;
36185;SDS011;22228;53.222;7.446;2023-09-18T09:37:20;14.83;;;13.43;;
36185;SDS011;22228;53.222;7.446;2023-09-18T09:39:50;13.87;;;12.47;;
36185;SDS011;22228;53.222;7.446;2023-09-18T09:42:11;14.50;;;13.10;;
36185;SDS011;22228;53.222;7.446;2023-09-18T09:44:31;14.93;;;12.97;;
36185;SDS011;22228;53.222;7.446;2023-09-18T09:46:52;13.67;;;12.33;;
36185;SDS011;22228;53.222;7.446;2023-09-18T09:49:13;15.40;;;13.17;;
36185;SDS011;22228;53.222;7.446;2023-09-18T09:51:34;14.10;;;12.60;;
36185;SDS011;22228;53.222;7.446;2023-09-18T09:53:57;13.83;;;12.53;;
36185;SDS011;22228;53.222;7.446;2023-09-18T09:56:18;14.83;;;13.33;;
36185;SDS011;22228;53.222;7.446;2023-09-18T09:58:40;14.47;;;12.93;;
36185;SDS011;22228;53.222;7.446;2023-09-18T10:01:03;14.13;;;12.13;;
36185;SDS011;22228;53.222;7.446;2023-09-18T10:03:28;16.40;;;12.90;;
36185;SDS011;22228;53.222;7.446;2023-09-18T10:05:50;15.70;;;12.90;;
36185;SDS011;22228;53.222;7.446;2023-09-18T10:08:13;15.07;;;12.30;;
36185;SDS011;22228;53.222;7.446;2023-09-18T10:10:40;14.60;;;13.20;;
36185;SDS011;22228;53.222;7.446;2023-09-18T10:13:10;14.33;;;12.83;;
36185;SDS011;22228;53.222;7.446;2023-09-18T10:15:36;13.33;;;12.07;;
36185;SDS011;22228;53.222;7.446;2023-09-18T10:17:58;15.10;;;13.60;;
36185;SDS011;22228;53.222;7.446;2023-09-18T10:20:21;17.40;;;13.50;;
36185;SDS011;22228;53.222;7.446;2023-09-18T10:22:45;14.97;;;12.87;;
36185;SDS011;22228;53.222;7.446;2023-09-18T10:25:10;14.83;;;12.90;;
36185;SDS011;22228;53.222;7.446;2023-09-18T10:27:38;13.70;;;12.27;;
36185;SDS011;22228;53.222;7.446;2023-09-18T10:30:01;14.20;;;12.97;;
36185;SDS011;22228;53.222;7.446;2023-09-18T10:32:23;16.00;;;13.37;;
36185;SDS011;22228;53.222;7.446;2023-09-18T10:34:47;12.63;;;11.40;;
36185;SDS011;22228;53.222;7.446;2023-09-18T10:37:08;13.20;;;12.00;;
36185;SDS011;22228;53.222;7.446;2023-09-18T10:39:31;12.07;;;10.97;;
36185;SDS011;22228;53.222;7.446;2023-09-18T10:41:54;11.97;;;10.57;;
36185;SDS011;22228;53.222;7.446;2023-09-18T10:44:17;11.07;;;9.63;;
36185;SDS011;22228;53.222;7.446;2023-09-18T10:46:39;13.50;;;9.23;;
36185;SDS011;22228;53.222;7.446;2023-09-18T10:48:59;9.97;;;8.97;;
36185;SDS011;22228;53.222;7.446;2023-09-18T10:51:22;10.27;;;8.60;;
36185;SDS011;22228;53.222;7.446;2023-09-18T10:53:43;12.70;;;8.43;;
36185;SDS011;22228;53.222;7.446;2023-09-18T10:56:07;12.10;;;8.27;;
36185;SDS011;22228;53.222;7.446;2023-09-18T10:58:28;9.00;;;7.90;;
36185;SDS011;22228;53.222;7.446;2023-09-18T11:00:50;9.13;;;8.43;;
36185;SDS011;22228;53.222;7.446;2023-09-18T11:03:11;10.13;;;8.43;;
36185;SDS011;22228;53.222;7.446;2023-09-18T11:05:36;9.70;;;8.87;;
36185;SDS011;22228;53.222;7.446;2023-09-18T11:10:54;11.27;;;8.47;;
36185;SDS011;22228;53.222;7.446;2023-09-18T11:13:28;11.03;;;9.20;;
36185;SDS011;22228;53.222;7.446;2023-09-18T11:15:50;8.93;;;8.10;;
36185;SDS011;22228;53.222;7.446;2023-09-18T11:18:11;7.53;;;6.80;;
36185;SDS011;22228;53.222;7.446;2023-09-18T11:20:40;7.23;;;6.63;;
36185;SDS011;22228;53.222;7.446;2023-09-18T11:23:09;7.13;;;6.63;;
36185;SDS011;22228;53.222;7.446;2023-09-18T11:25:36;6.63;;;6.10;;
36185;SDS011;22228;53.222;7.446;2023-09-18T11:27:59;7.73;;;6.87;;
36185;SDS011;22228;53.222;7.446;2023-09-18T11:30:20;8.70;;;6.70;;
36185;SDS011;22228;53.222;7.446;2023-09-18T11:32:42;6.23;;;5.50;;
36185;SDS011;22228;53.222;7.446;2023-09-18T11:35:06;7.43;;;6.73;;
36185;SDS011;22228;53.222;7.446;2023-09-18T11:37:27;6.63;;;5.23;;
36185;SDS011;22228;53.222;7.446;2023-09-18T11:39:47;5.40;;;4.90;;
36185;SDS011;22228;53.222;7.446;2023-09-18T11:42:09;5.23;;;4.73;;
36185;SDS011;22228;53.222;7.446;2023-09-18T11:44:33;5.03;;;4.60;;
36185;SDS011;22228;53.222;7.446;2023-09-18T11:46:59;4.47;;;4.00;;
36185;SDS011;22228;53.222;7.446;2023-09-18T11:49:24;4.13;;;3.70;;
36185;SDS011;22228;53.222;7.446;2023-09-18T11:51:45;3.60;;;3.27;;
36185;SDS011;22228;53.222;7.446;2023-09-18T11:54:07;5.13;;;4.07;;
36185;SDS011;22228;53.222;7.446;2023-09-18T11:56:27;2.80;;;2.60;;
36185;SDS011;22228;53.222;7.446;2023-09-18T11:58:48;4.10;;;3.03;;
36185;SDS011;22228;53.222;7.446;2023-09-18T12:01:10;3.23;;;2.77;;
36185;SDS011;22228;53.222;7.446;2023-09-18T12:03:32;4.63;;;3.03;;
36185;SDS011;22228;53.222;7.446;2023-09-18T12:05:55;3.63;;;3.33;;
36185;SDS011;22228;53.222;7.446;2023-09-18T12:08:16;3.13;;;2.83;;
36185;SDS011;22228;53.222;7.446;2023-09-18T12:10:37;3.27;;;2.97;;
36185;SDS011;22228;53.222;7.446;2023-09-18T12:12:57;4.93;;;2.70;;
36185;SDS011;22228;53.222;7.446;2023-09-18T12:15:18;3.73;;;2.40;;
36185;SDS011;22228;53.222;7.446;2023-09-18T12:17:39;2.03;;;1.90;;
36185;SDS011;22228;53.222;7.446;2023-09-18T12:19:59;4.87;;;2.07;;
36185;SDS011;22228;53.222;7.446;2023-09-18T12:22:27;2.60;;;2.40;;
36185;SDS011;22228;53.222;7.446;2023-09-18T12:24:49;5.90;;;2.23;;
36185;SDS011;22228;53.222;7.446;2023-09-18T12:27:08;5.40;;;2.20;;
36185;SDS011;22228;53.222;7.446;2023-09-18T12:29:29;7.40;;;2.20;;
36185;SDS011;22228;53.222;7.446;2023-09-18T12:31:52;3.30;;;1.97;;
36185;SDS011;22228;53.222;7.446;2023-09-18T12:34:16;2.80;;;2.30;;
36185;SDS011;22228;53.222;7.446;2023-09-18T12:36:37;2.53;;;1.90;;
36185;SDS011;22228;53.222;7.446;2023-09-18T12:39:03;2.43;;;1.90;;
36185;SDS011;22228;53.222;7.446;2023-09-18T12:41:25;2.33;;;2.00;;
36185;SDS011;22228;53.222;7.446;2023-09-18T12:43:46;2.87;;;1.90;;
36185;SDS011;22228;53.222;7.446;2023-09-18T12:46:07;4.03;;;1.70;;
36185;SDS011;22228;53.222;7.446;2023-09-18T12:48:28;4.03;;;1.93;;
36185;SDS011;22228;53.222;7.446;2023-09-18T12:50:51;2.03;;;1.53;;
36185;SDS011;22228;53.222;7.446;2023-09-18T12:53:13;1.37;;;1.27;;
36185;SDS011;22228;53.222;7.446;2023-09-18T12:55:37;1.50;;;1.40;;
36185;SDS011;22228;53.222;7.446;2023-09-18T12:57:58;2.23;;;1.30;;
36185;SDS011;22228;53.222;7.446;2023-09-18T13:00:20;3.47;;;1.43;;
36185;SDS011;22228;53.222;7.446;2023-09-18T13:02:44;2.17;;;1.40;;
36185;SDS011;22228;53.222;7.446;2023-09-18T13:05:05;2.73;;;1.43;;
36185;SDS011;22228;53.222;7.446;2023-09-18T13:07:25;3.90;;;1.33;;
36185;SDS011;22228;53.222;7.446;2023-09-18T13:09:57;1.70;;;1.10;;
36185;SDS011;22228;53.222;7.446;2023-09-18T13:12:20;1.57;;;1.30;;
36185;SDS011;22228;53.222;7.446;2023-09-18T13:14:59;2.87;;;1.10;;
36185;SDS011;22228;53.222;7.446;2023-09-18T13:17:23;1.73;;;1.00;;
36185;SDS011;22228;53.222;7.446;2023-09-18T13:19:43;1.40;;;1.00;;
36185;SDS011;22228;53.222;7.446;2023-09-18T13:22:04;2.17;;;1.10;;
36185;SDS011;22228;53.222;7.446;2023-09-18T13:24:25;1.60;;;1.40;;
36185;SDS011;22228;53.222;7.446;2023-09-18T13:26:47;1.80;;;1.20;;
36185;SDS011;22228;53.222;7.446;2023-09-18T13:29:08;2.70;;;1.23;;
36185;SDS011;22228;53.222;7.446;2023-09-18T13:31:29;13.33;;;4.40;;
36185;SDS011;22228;53.222;7.446;2023-09-18T13:33:51;1.97;;;1.20;;
36185;SDS011;22228;53.222;7.446;2023-09-18T13:36:12;1.80;;;1.20;;
36185;SDS011;22228;53.222;7.446;2023-09-18T13:38:34;2.27;;;1.40;;
36185;SDS011;22228;53.222;7.446;2023-09-18T13:40:55;3.60;;;1.37;;
36185;SDS011;22228;53.222;7.446;2023-09-18T13:43:15;3.33;;;1.20;;
36185;SDS011;22228;53.222;7.446;2023-09-18T13:45:38;2.40;;;1.33;;
36185;SDS011;22228;53.222;7.446;2023-09-18T13:47:59;1.47;;;1.13;;
36185;SDS011;22228;53.222;7.446;2023-09-18T13:50:19;2.50;;;1.07;;
36185;SDS011;22228;53.222;7.446;2023-09-18T13:52:40;3.33;;;1.20;;
36185;SDS011;22228;53.222;7.446;2023-09-18T13:55:00;2.50;;;0.90;;
36185;SDS011;22228;53.222;7.446;2023-09-18T13:57:24;1.60;;;1.30;;
36185;SDS011;22228;53.222;7.446;2023-09-18T13:59:44;1.37;;;0.90;;
36185;SDS011;22228;53.222;7.446;2023-09-18T14:02:06;1.73;;;0.80;;
36185;SDS011;22228;53.222;7.446;2023-09-18T14:04:27;2.70;;;1.10;;
36185;SDS011;22228;53.222;7.446;2023-09-18T14:06:47;2.47;;;1.33;;
36185;SDS011;22228;53.222;7.446;2023-09-18T14:09:08;4.73;;;1.27;;
36185;SDS011;22228;53.222;7.446;2023-09-18T14:11:28;2.23;;;1.00;;
36185;SDS011;22228;53.222;7.446;2023-09-18T14:13:49;2.73;;;1.40;;
36185;SDS011;22228;53.222;7.446;2023-09-18T14:16:10;1.20;;;1.00;;
36185;SDS011;22228;53.222;7.446;2023-09-18T14:18:34;4.43;;;2.77;;
36185;SDS011;22228;53.222;7.446;2023-09-18T14:20:55;3.63;;;1.50;;
36185;SDS011;22228;53.222;7.446;2023-09-18T14:23:15;4.53;;;1.23;;
36185;SDS011;22228;53.222;7.446;2023-09-18T14:25:36;2.43;;;1.30;;
36185;SDS011;22228;53.222;7.446;2023-09-18T14:27:56;3.37;;;1.27;;
36185;SDS011;22228;53.222;7.446;2023-09-18T14:30:17;2.40;;;1.00;;
36185;SDS011;22228;53.222;7.446;2023-09-18T14:32:38;1.67;;;1.20;;
36185;SDS011;22228;53.222;7.446;2023-09-18T14:35:00;1.30;;;1.20;;
36185;SDS011;22228;53.222;7.446;2023-09-18T14:37:21;1.33;;;1.10;;
36185;SDS011;22228;53.222;7.446;2023-09-18T14:39:42;3.97;;;1.30;;
36185;SDS011;22228;53.222;7.446;2023-09-18T14:42:03;4.17;;;1.67;;
36185;SDS011;22228;53.222;7.446;2023-09-18T14:44:24;2.87;;;1.80;;
36185;SDS011;22228;53.222;7.446;2023-09-18T14:46:44;3.00;;;1.53;;
36185;SDS011;22228;53.222;7.446;2023-09-18T14:49:05;3.97;;;1.90;;
36185;SDS011;22228;53.222;7.446;2023-09-18T14:51:28;3.43;;;1.70;;
36185;SDS011;22228;53.222;7.446;2023-09-18T14:53:49;4.23;;;1.80;;
36185;SDS011;22228;53.222;7.446;2023-09-18T14:56:09;3.23;;;1.50;;
36185;SDS011;22228;53.222;7.446;2023-09-18T14:58:33;2.93;;;1.70;;
36185;SDS011;22228;53.222;7.446;2023-09-18T15:00:54;2.03;;;1.47;;
36185;SDS011;22228;53.222;7.446;2023-09-18T15:03:14;3.27;;;1.77;;
36185;SDS011;22228;53.222;7.446;2023-09-18T15:05:35;2.63;;;1.60;;
36185;SDS011;22228;53.222;7.446;2023-09-18T15:07:58;2.77;;;1.40;;
36185;SDS011;22228;53.222;7.446;2023-09-18T15:10:18;2.17;;;1.70;;
36185;SDS011;22228;53.222;7.446;2023-09-18T15:12:39;1.83;;;1.73;;
36185;SDS011;22228;53.222;7.446;2023-09-18T15:15:00;3.10;;;1.90;;
36185;SDS011;22228;53.222;7.446;2023-09-18T15:17:21;2.57;;;1.60;;
36185;SDS011;22228;53.222;7.446;2023-09-18T15:19:41;1.90;;;1.17;;
36185;SDS011;22228;53.222;7.446;2023-09-18T15:22:02;2.13;;;1.60;;
36185;SDS011;22228;53.222;7.446;2023-09-18T15:24:44;2.63;;;1.63;;
36185;SDS011;22228;53.222;7.446;2023-09-18T15:27:04;1.90;;;1.50;;
36185;SDS011;22228;53.222;7.446;2023-09-18T15:29:25;1.90;;;1.50;;
36185;SDS011;22228;53.222;7.446;2023-09-18T15:31:46;1.27;;;1.17;;
36185;SDS011;22228;53.222;7.446;2023-09-18T15:34:08;3.07;;;1.53;;
36185;SDS011;22228;53.222;7.446;2023-09-18T15:36:29;2.13;;;1.30;;
36185;SDS011;22228;53.222;7.446;2023-09-18T15:38:49;2.73;;;1.37;;
36185;SDS011;22228;53.222;7.446;2023-09-18T15:41:11;2.57;;;1.70;;
36185;SDS011;22228;53.222;7.446;2023-09-18T15:43:33;5.67;;;1.57;;
36185;SDS011;22228;53.222;7.446;2023-09-18T15:45:53;2.45;;;1.50;;
36185;SDS011;22228;53.222;7.446;2023-09-18T15:48:16;2.70;;;1.90;;
36185;SDS011;22228;53.222;7.446;2023-09-18T15:50:37;4.27;;;1.70;;
36185;SDS011;22228;53.222;7.446;2023-09-18T15:52:58;2.63;;;1.80;;
36185;SDS011;22228;53.222;7.446;2023-09-18T15:55:18;3.83;;;1.60;;
36185;SDS011;22228;53.222;7.446;2023-09-18T15:57:40;2.67;;;1.47;;
36185;SDS011;22228;53.222;7.446;2023-09-18T16:00:02;4.40;;;2.07;;
36185;SDS011;22228;53.222;7.446;2023-09-18T16:02:33;2.97;;;1.80;;
36185;SDS011;22228;53.222;7.446;2023-09-18T16:04:53;3.77;;;1.80;;
36185;SDS011;22228;53.222;7.446;2023-09-18T16:07:14;3.37;;;2.00;;
36185;SDS011;22228;53.222;7.446;2023-09-18T16:09:36;3.20;;;1.90;;
36185;SDS011;22228;53.222;7.446;2023-09-18T16:11:57;2.93;;;2.17;;
36185;SDS011;22228;53.222;7.446;2023-09-18T16:14:18;3.67;;;1.63;;
36185;SDS011;22228;53.222;7.446;2023-09-18T16:16:40;4.03;;;2.07;;
36185;SDS011;22228;53.222;7.446;2023-09-18T16:19:01;3.33;;;1.80;;
36185;SDS011;22228;53.222;7.446;2023-09-18T16:21:21;3.03;;;2.20;;
36185;SDS011;22228;53.222;7.446;2023-09-18T16:23:41;2.97;;;2.10;;
36185;SDS011;22228;53.222;7.446;2023-09-18T16:26:02;3.00;;;1.90;;
36185;SDS011;22228;53.222;7.446;2023-09-18T16:28:23;3.50;;;2.07;;
36185;SDS011;22228;53.222;7.446;2023-09-18T16:30:45;3.90;;;2.03;;
36185;SDS011;22228;53.222;7.446;2023-09-18T16:33:06;2.73;;;1.60;;
36185;SDS011;22228;53.222;7.446;2023-09-18T16:35:26;3.90;;;2.10;;
36185;SDS011;22228;53.222;7.446;2023-09-18T16:37:48;3.17;;;2.10;;
36185;SDS011;22228;53.222;7.446;2023-09-18T16:40:09;3.50;;;2.00;;
36185;SDS011;22228;53.222;7.446;2023-09-18T16:42:30;1.80;;;1.70;;
36185;SDS011;22228;53.222;7.446;2023-09-18T16:44:51;2.93;;;1.90;;
36185;SDS011;22228;53.222;7.446;2023-09-18T16:47:13;2.90;;;1.70;;
36185;SDS011;22228;53.222;7.446;2023-09-18T16:49:33;3.87;;;2.10;;